Time;durP1;ratioP1;P1;durP2;ratioP2;P2;SDS_P1;SDS_P2;PMS_P1;PMS_P2;Temp;Humidity;BMP_temperature;BMP_pressure;BME280_temperature;BME280_humidity;BME280_pressure;Samples;Min_cycle;Max_cycle;Signal;HPM_P1;HPM_P2
2023/12/03 00:00:53;;;;;;;23.38;8.40;;;;;;;;;;5060260;28;20144;-62
2023/12/03 00:03:21;;;;;;;25.35;8.43;;;;;;;;;;5056555;28;20060;-62
2023/12/03 00:05:50;;;;;;;25.08;8.65;;;;;;;;;;5061155;28;20203;-62
2023/12/03 00:08:16;;;;;;;24.35;7.82;;;;;;;;;;5042879;27;20080;-62
2023/12/03 00:10:43;;;;;;;24.98;9.48;;;;;;;;;;5060951;28;20064;-62
2023/12/03 00:13:11;;;;;;;25.80;8.82;;;;;;;;;;5076365;28;20116;-61
2023/12/03 00:15:38;;;;;;;22.30;8.10;;;;;;;;;;5048375;28;20053;-63
2023/12/03 00:18:05;;;;;;;26.05;8.68;;;;;;;;;;5037939;28;20215;-62
2023/12/03 00:20:31;;;;;;;28.13;8.25;;;;;;;;;;5075513;28;20061;-62
2023/12/03 00:22:58;;;;;;;21.20;7.70;;;;;;;;;;5047507;28;20080;-62
2023/12/03 00:25:25;;;;;;;19.48;7.38;;;;;;;;;;5047484;28;20184;-61
2023/12/03 00:27:52;;;;;;;20.80;7.13;;;;;;;;;;5046501;28;20064;-62
2023/12/03 00:30:20;;;;;;;17.92;6.68;;;;;;;;;;5044144;28;20037;-60
2023/12/03 00:32:47;;;;;;;21.30;7.60;;;;;;;;;;5056054;28;20060;-62
2023/12/03 00:35:14;;;;;;;26.60;7.30;;;;;;;;;;5055593;28;20052;-61
2023/12/03 00:37:40;;;;;;;22.48;7.20;;;;;;;;;;5042819;28;20049;-63
2023/12/03 00:40:08;;;;;;;26.83;8.43;;;;;;;;;;5051779;28;20117;-61
2023/12/03 00:42:35;;;;;;;19.67;7.55;;;;;;;;;;5053680;28;20057;-63
2023/12/03 00:45:02;;;;;;;31.45;7.57;;;;;;;;;;5056201;28;20109;-60
2023/12/03 00:47:30;;;;;;;21.77;6.82;;;;;;;;;;5011948;28;20056;-61
2023/12/03 00:49:57;;;;;;;29.35;8.75;;;;;;;;;;5059653;28;20045;-62
2023/12/03 00:52:24;;;;;;;36.80;9.55;;;;;;;;;;5046423;28;20053;-61
2023/12/03 00:54:50;;;;;;;23.92;8.32;;;;;;;;;;5047663;28;20048;-62
2023/12/03 00:57:17;;;;;;;24.90;7.50;;;;;;;;;;5046536;28;20053;-61
2023/12/03 00:59:44;;;;;;;24.65;7.00;;;;;;;;;;5051518;28;20058;-61
2023/12/03 01:02:10;;;;;;;28.60;8.75;;;;;;;;;;5046645;28;20068;-60
2023/12/03 01:04:38;;;;;;;27.48;8.10;;;;;;;;;;5053950;28;20063;-61
2023/12/03 01:07:05;;;;;;;26.35;7.85;;;;;;;;;;5046366;28;20056;-62
2023/12/03 01:09:32;;;;;;;28.52;8.63;;;;;;;;;;5057244;28;20060;-62
2023/12/03 01:11:59;;;;;;;26.20;8.98;;;;;;;;;;5049301;28;20107;-62
2023/12/03 01:14:25;;;;;;;35.13;9.48;;;;;;;;;;5048245;28;20045;-62
2023/12/03 01:16:52;;;;;;;31.92;8.70;;;;;;;;;;5048413;28;20056;-62
2023/12/03 01:19:19;;;;;;;27.85;8.85;;;;;;;;;;5055692;28;20131;-63
2023/12/03 01:21:47;;;;;;;33.03;8.93;;;;;;;;;;5059641;28;20067;-62
2023/12/03 01:24:17;;;;;;;37.70;9.20;;;;;;;;;;5052771;28;20048;-62
2023/12/03 01:26:44;;;;;;;22.17;7.70;;;;;;;;;;5052200;28;20136;-63
2023/12/03 01:29:12;;;;;;;29.50;8.05;;;;;;;;;;5050007;28;20065;-63
2023/12/03 01:31:39;;;;;;;22.88;7.22;;;;;;;;;;5065115;28;20438;-63
2023/12/03 01:34:08;;;;;;;27.35;7.47;;;;;;;;;;5050960;28;20133;-62
2023/12/03 01:36:34;;;;;;;25.08;7.47;;;;;;;;;;5047062;28;20120;-63
2023/12/03 01:39:05;;;;;;;29.05;8.48;;;;;;;;;;5051999;28;20064;-63
2023/12/03 01:41:31;;;;;;;20.48;7.03;;;;;;;;;;5058576;28;20083;-63
2023/12/03 01:43:58;;;;;;;23.45;7.43;;;;;;;;;;5051706;28;20040;-62
2023/12/03 01:46:26;;;;;;;27.77;8.18;;;;;;;;;;5048790;28;20053;-63
2023/12/03 01:48:52;;;;;;;31.67;9.60;;;;;;;;;;5063118;28;20083;-62
2023/12/03 01:51:19;;;;;;;24.25;8.27;;;;;;;;;;5056668;28;20051;-63
2023/12/03 01:53:47;;;;;;;21.70;7.65;;;;;;;;;;5054421;28;20110;-62
2023/12/03 01:56:17;;;;;;;22.92;7.53;;;;;;;;;;5034378;28;20056;-63
2023/12/03 01:58:44;;;;;;;18.73;6.47;;;;;;;;;;5048050;28;20118;-63
2023/12/03 02:01:11;;;;;;;27.88;7.85;;;;;;;;;;5057670;28;20133;-63
2023/12/03 02:03:38;;;;;;;30.10;7.97;;;;;;;;;;5059516;28;20094;-63
2023/12/03 02:06:05;;;;;;;29.30;8.52;;;;;;;;;;5046240;28;20057;-63
2023/12/03 02:08:32;;;;;;;20.75;7.47;;;;;;;;;;5054583;28;20326;-63
2023/12/03 02:10:59;;;;;;;24.90;8.48;;;;;;;;;;5058974;28;20049;-62
2023/12/03 02:13:30;;;;;;;26.23;8.77;;;;;;;;;;5058481;28;20117;-62
2023/12/03 02:15:56;;;;;;;26.63;8.52;;;;;;;;;;5053239;28;20118;-63
2023/12/03 02:18:23;;;;;;;26.38;8.25;;;;;;;;;;5052268;28;20052;-63
2023/12/03 02:20:50;;;;;;;24.98;7.97;;;;;;;;;;5057293;28;20090;-62
2023/12/03 02:23:19;;;;;;;26.75;8.30;;;;;;;;;;5057197;28;20105;-63
2023/12/03 02:25:46;;;;;;;23.98;8.38;;;;;;;;;;5051253;28;20072;-63
2023/12/03 02:28:13;;;;;;;23.45;7.38;;;;;;;;;;5038725;28;20055;-62
2023/12/03 02:33:14;;;;;;;23.80;7.80;;;;;;;;;;5189029;23;20045;-62
2023/12/03 02:35:41;;;;;;;20.80;6.97;;;;;;;;;;5028746;28;20119;-62
2023/12/03 02:38:08;;;;;;;24.00;7.88;;;;;;;;;;5040652;28;20270;-62
2023/12/03 02:40:38;;;;;;;25.80;8.13;;;;;;;;;;5038498;28;20461;-62
2023/12/03 02:43:05;;;;;;;32.03;9.13;;;;;;;;;;5038596;28;20042;-62
2023/12/03 02:45:32;;;;;;;27.58;8.75;;;;;;;;;;5024204;28;20118;-62
2023/12/03 02:47:59;;;;;;;24.85;8.65;;;;;;;;;;5022351;28;20057;-63
2023/12/03 02:50:25;;;;;;;25.25;8.57;;;;;;;;;;5027909;28;20077;-62
2023/12/03 02:52:52;;;;;;;24.27;8.23;;;;;;;;;;5030516;28;20080;-62
2023/12/03 02:55:19;;;;;;;21.60;8.13;;;;;;;;;;5044379;28;20052;-62
2023/12/03 02:57:47;;;;;;;23.67;8.23;;;;;;;;;;5023205;28;20053;-62
2023/12/03 03:00:14;;;;;;;21.65;8.52;;;;;;;;;;5039732;28;20046;-62
2023/12/03 03:02:41;;;;;;;26.95;9.95;;;;;;;;;;5021485;28;20054;-61
2023/12/03 03:05:08;;;;;;;30.27;8.98;;;;;;;;;;5021495;28;20104;-62
2023/12/03 03:07:35;;;;;;;24.30;9.07;;;;;;;;;;5028663;28;20061;-62
2023/12/03 03:10:02;;;;;;;25.20;8.30;;;;;;;;;;5023910;28;20038;-64
2023/12/03 03:12:29;;;;;;;25.80;8.90;;;;;;;;;;5028655;28;20127;-62
2023/12/03 03:14:57;;;;;;;31.02;9.90;;;;;;;;;;5017471;28;20129;-62
2023/12/03 03:17:24;;;;;;;24.10;8.65;;;;;;;;;;5022040;28;20050;-62
2023/12/03 03:19:51;;;;;;;25.75;9.18;;;;;;;;;;5020148;28;20084;-62
2023/12/03 03:22:17;;;;;;;26.40;8.70;;;;;;;;;;5019908;28;20053;-63
2023/12/03 03:24:44;;;;;;;29.40;10.00;;;;;;;;;;5029507;28;20143;-62
2023/12/03 03:27:10;;;;;;;29.35;10.73;;;;;;;;;;5021692;28;20076;-62
2023/12/03 03:29:37;;;;;;;25.58;10.75;;;;;;;;;;5019574;28;20149;-63
2023/12/03 03:32:06;;;;;;;29.45;11.02;;;;;;;;;;5026289;28;20053;-63
2023/12/03 03:34:33;;;;;;;27.00;10.57;;;;;;;;;;5032174;28;20104;-61
2023/12/03 03:36:59;;;;;;;26.35;10.98;;;;;;;;;;5022393;28;20113;-61
2023/12/03 03:39:26;;;;;;;25.85;11.50;;;;;;;;;;5018505;28;20149;-62
2023/12/03 03:41:55;;;;;;;24.67;9.70;;;;;;;;;;5018471;28;20085;-62
2023/12/03 03:44:22;;;;;;;26.15;10.02;;;;;;;;;;5010186;28;20076;-62
2023/12/03 03:46:49;;;;;;;25.17;9.23;;;;;;;;;;5036868;28;20053;-61
2023/12/03 03:49:17;;;;;;;24.25;9.52;;;;;;;;;;5026625;28;20033;-61
2023/12/03 03:51:44;;;;;;;24.50;10.30;;;;;;;;;;5027423;28;20099;-63
2023/12/03 03:54:10;;;;;;;22.42;8.77;;;;;;;;;;5018131;28;20304;-65
2023/12/03 03:56:37;;;;;;;21.15;9.27;;;;;;;;;;5034023;28;20077;-62
2023/12/03 03:59:03;;;;;;;25.30;10.30;;;;;;;;;;5025211;28;20119;-62
2023/12/03 04:01:30;;;;;;;23.58;8.55;;;;;;;;;;5024724;28;20041;-62
2023/12/03 04:03:57;;;;;;;22.48;9.55;;;;;;;;;;5017369;28;20053;-62
2023/12/03 04:06:25;;;;;;;25.60;10.40;;;;;;;;;;5023688;28;20104;-61
2023/12/03 04:08:52;;;;;;;22.92;8.70;;;;;;;;;;5040340;28;20053;-62
2023/12/03 04:11:18;;;;;;;20.95;9.10;;;;;;;;;;5026983;28;20057;-62
2023/12/03 04:13:45;;;;;;;20.67;9.32;;;;;;;;;;5026982;28;20065;-62
2023/12/03 04:16:21;;;;;;;23.17;9.57;;;;;;;;;;5021891;28;20073;-62
2023/12/03 04:18:47;;;;;;;18.65;8.20;;;;;;;;;;5036777;28;20057;-62
2023/12/03 04:21:15;;;;;;;19.20;8.88;;;;;;;;;;5024153;28;20064;-62
2023/12/03 04:23:43;;;;;;;18.70;8.13;;;;;;;;;;5025857;28;20045;-62
2023/12/03 04:26:09;;;;;;;24.52;9.13;;;;;;;;;;5021639;28;20109;-63
2023/12/03 04:28:39;;;;;;;23.15;8.27;;;;;;;;;;5028906;28;20115;-61
2023/12/03 04:31:06;;;;;;;21.67;7.78;;;;;;;;;;5033443;28;20045;-62
2023/12/03 04:33:33;;;;;;;17.88;7.75;;;;;;;;;;5023728;28;20129;-62
2023/12/03 04:36:00;;;;;;;25.33;9.02;;;;;;;;;;5034258;28;20064;-65
2023/12/03 04:38:26;;;;;;;23.73;8.52;;;;;;;;;;5022984;28;20049;-62
2023/12/03 04:40:55;;;;;;;23.40;8.63;;;;;;;;;;5027197;28;20054;-62
2023/12/03 04:43:21;;;;;;;19.25;8.32;;;;;;;;;;5024311;28;20127;-62
2023/12/03 04:45:48;;;;;;;17.98;7.30;;;;;;;;;;5026256;28;20109;-62
2023/12/03 04:48:14;;;;;;;19.73;8.15;;;;;;;;;;5015035;28;20060;-62
2023/12/03 04:50:41;;;;;;;21.75;8.85;;;;;;;;;;5023930;28;20053;-62
2023/12/03 04:53:07;;;;;;;20.08;8.13;;;;;;;;;;5014624;28;20069;-64
2023/12/03 04:55:34;;;;;;;17.95;7.70;;;;;;;;;;5036173;28;20057;-61
2023/12/03 04:58:03;;;;;;;20.95;9.02;;;;;;;;;;5021255;28;20057;-63
2023/12/03 05:00:29;;;;;;;17.58;7.65;;;;;;;;;;5042510;28;20041;-62
2023/12/03 05:02:56;;;;;;;20.92;8.25;;;;;;;;;;5025241;28;20229;-62
2023/12/03 05:05:22;;;;;;;21.17;9.05;;;;;;;;;;5037713;28;20050;-62
2023/12/03 05:07:49;;;;;;;20.27;8.23;;;;;;;;;;5033289;28;20045;-61
2023/12/03 05:10:16;;;;;;;18.55;7.85;;;;;;;;;;5018791;28;20160;-61
2023/12/03 05:12:43;;;;;;;20.10;7.80;;;;;;;;;;5036875;28;20067;-64
2023/12/03 05:15:11;;;;;;;20.77;8.35;;;;;;;;;;5021614;28;20119;-62
2023/12/03 05:17:39;;;;;;;18.45;7.63;;;;;;;;;;5021638;28;20060;-61
2023/12/03 05:20:07;;;;;;;15.98;6.35;;;;;;;;;;5038770;28;20049;-62
2023/12/03 05:22:33;;;;;;;20.85;7.72;;;;;;;;;;5020331;28;20046;-61
2023/12/03 05:25:00;;;;;;;18.90;7.65;;;;;;;;;;5017141;28;20140;-61
2023/12/03 05:27:27;;;;;;;20.33;9.18;;;;;;;;;;5030958;28;20049;-62
2023/12/03 05:29:54;;;;;;;22.48;8.63;;;;;;;;;;5020287;28;20045;-61
2023/12/03 05:32:22;;;;;;;22.48;8.25;;;;;;;;;;5014264;28;20053;-61
2023/12/03 05:34:48;;;;;;;20.80;7.68;;;;;;;;;;5015473;28;20053;-61
2023/12/03 05:37:15;;;;;;;24.98;8.43;;;;;;;;;;5037742;28;20119;-61
2023/12/03 05:39:42;;;;;;;19.67;7.72;;;;;;;;;;5029031;28;20060;-62
2023/12/03 05:42:09;;;;;;;18.60;7.40;;;;;;;;;;5014658;28;20067;-62
2023/12/03 05:44:35;;;;;;;20.58;7.70;;;;;;;;;;5015289;28;20057;-62
2023/12/03 05:47:02;;;;;;;21.48;8.70;;;;;;;;;;5025696;28;20080;-62
2023/12/03 05:49:30;;;;;;;20.77;7.72;;;;;;;;;;5022459;28;20047;-62
2023/12/03 05:51:57;;;;;;;19.08;8.15;;;;;;;;;;5020199;28;20148;-60
2023/12/03 05:54:24;;;;;;;23.10;8.38;;;;;;;;;;5009481;28;20068;-62
2023/12/03 05:56:51;;;;;;;20.92;7.72;;;;;;;;;;5025137;28;20060;-62
2023/12/03 05:59:17;;;;;;;24.67;8.85;;;;;;;;;;5052134;28;20053;-62
2023/12/03 06:01:44;;;;;;;22.52;8.27;;;;;;;;;;5033159;28;20080;-64
2023/12/03 06:04:11;;;;;;;20.90;7.38;;;;;;;;;;5006897;28;20174;-62
2023/12/03 06:06:39;;;;;;;19.33;7.75;;;;;;;;;;5025943;28;20053;-62
2023/12/03 06:09:09;;;;;;;21.60;8.63;;;;;;;;;;5018231;28;20055;-61
2023/12/03 06:11:36;;;;;;;21.35;8.90;;;;;;;;;;5038132;28;20045;-61
2023/12/03 06:14:03;;;;;;;18.52;8.02;;;;;;;;;;5014460;28;20084;-62
2023/12/03 06:16:30;;;;;;;20.95;7.68;;;;;;;;;;5033208;28;20069;-62
2023/12/03 06:18:56;;;;;;;19.00;7.72;;;;;;;;;;5021884;28;20076;-62
2023/12/03 06:21:23;;;;;;;22.40;8.80;;;;;;;;;;5035158;28;20081;-62
2023/12/03 06:23:52;;;;;;;22.17;8.00;;;;;;;;;;5014632;28;20053;-62
2023/12/03 06:26:18;;;;;;;20.70;7.82;;;;;;;;;;5016334;28;20041;-61
2023/12/03 06:28:45;;;;;;;23.20;8.55;;;;;;;;;;5021620;28;20076;-61
2023/12/03 06:31:11;;;;;;;24.90;9.60;;;;;;;;;;5023355;28;20059;-64
2023/12/03 06:33:38;;;;;;;25.38;9.80;;;;;;;;;;5016404;28;20061;-61
2023/12/03 06:36:06;;;;;;;21.98;8.30;;;;;;;;;;5019901;28;20061;-63
2023/12/03 06:38:33;;;;;;;21.77;8.18;;;;;;;;;;5023122;28;20041;-62
2023/12/03 06:41:01;;;;;;;22.67;8.48;;;;;;;;;;5025892;28;20120;-62
2023/12/03 06:43:27;;;;;;;20.42;9.18;;;;;;;;;;5020606;28;20057;-61
2023/12/03 06:45:54;;;;;;;27.33;9.85;;;;;;;;;;5020771;28;20080;-61
2023/12/03 06:48:21;;;;;;;21.38;7.80;;;;;;;;;;5017202;28;20076;-62
2023/12/03 06:50:48;;;;;;;22.00;8.15;;;;;;;;;;5056682;28;20053;-62
2023/12/03 06:53:15;;;;;;;24.30;8.77;;;;;;;;;;5028655;28;20057;-62
2023/12/03 06:55:41;;;;;;;22.45;9.13;;;;;;;;;;5023909;28;20084;-63
2023/12/03 06:58:09;;;;;;;23.80;8.70;;;;;;;;;;5011991;28;20045;-62
2023/12/03 07:00:36;;;;;;;25.67;9.48;;;;;;;;;;5019280;28;20061;-62
2023/12/03 07:03:03;;;;;;;24.30;8.80;;;;;;;;;;5024358;28;20138;-63
2023/12/03 07:05:30;;;;;;;23.23;9.38;;;;;;;;;;5017187;28;20148;-62
2023/12/03 07:07:57;;;;;;;26.85;8.75;;;;;;;;;;5017584;28;20206;-62
2023/12/03 07:10:23;;;;;;;20.88;8.35;;;;;;;;;;5013489;28;20069;-63
2023/12/03 07:12:50;;;;;;;16.73;7.85;;;;;;;;;;5018142;28;20166;-62
2023/12/03 07:15:19;;;;;;;21.25;8.77;;;;;;;;;;5013423;28;20106;-62
2023/12/03 07:17:46;;;;;;;22.67;8.80;;;;;;;;;;5017818;28;20065;-62
2023/12/03 07:20:13;;;;;;;24.25;9.82;;;;;;;;;;5017391;28;20121;-62
2023/12/03 07:22:39;;;;;;;24.88;9.80;;;;;;;;;;5022897;28;20073;-61
2023/12/03 07:25:07;;;;;;;21.40;7.40;;;;;;;;;;5017712;28;20085;-62
2023/12/03 07:27:34;;;;;;;24.70;8.75;;;;;;;;;;5033545;28;20060;-62
2023/12/03 07:30:01;;;;;;;22.85;8.27;;;;;;;;;;5025200;28;20088;-62
2023/12/03 07:32:29;;;;;;;26.08;8.63;;;;;;;;;;5014524;28;20091;-62
2023/12/03 07:34:55;;;;;;;24.33;9.30;;;;;;;;;;5014487;28;20049;-62
2023/12/03 07:37:22;;;;;;;27.65;8.43;;;;;;;;;;5020402;28;20175;-63
2023/12/03 07:39:49;;;;;;;25.30;9.30;;;;;;;;;;5017003;28;20049;-62
2023/12/03 07:42:16;;;;;;;26.38;8.75;;;;;;;;;;5013387;28;20301;-62
2023/12/03 07:44:42;;;;;;;24.70;9.10;;;;;;;;;;5018376;28;20069;-62
2023/12/03 07:47:10;;;;;;;23.38;8.95;;;;;;;;;;5019098;28;20061;-63
2023/12/03 07:49:38;;;;;;;21.25;8.60;;;;;;;;;;5039025;28;20052;-62
2023/12/03 07:52:05;;;;;;;23.35;8.50;;;;;;;;;;5011924;28;20061;-64
2023/12/03 07:54:32;;;;;;;26.05;8.73;;;;;;;;;;5013333;28;20068;-62
2023/12/03 07:56:59;;;;;;;25.80;8.68;;;;;;;;;;5022736;28;20126;-62
2023/12/03 07:59:25;;;;;;;25.92;8.63;;;;;;;;;;5017284;28;20047;-62
2023/12/03 08:01:53;;;;;;;25.35;8.15;;;;;;;;;;5035808;28;20049;-62
2023/12/03 08:04:23;;;;;;;23.60;8.48;;;;;;;;;;5016514;28;21171;-61
2023/12/03 08:06:51;;;;;;;24.23;7.90;;;;;;;;;;5020266;28;20057;-62
2023/12/03 08:09:17;;;;;;;28.60;8.98;;;;;;;;;;5016690;28;20041;-62
2023/12/03 08:11:44;;;;;;;18.45;7.45;;;;;;;;;;5017404;28;20061;-64
2023/12/03 08:14:11;;;;;;;36.20;13.02;;;;;;;;;;5016524;28;20045;-62
2023/12/03 08:16:37;;;;;;;27.65;10.80;;;;;;;;;;5034821;28;20123;-61
2023/12/03 08:19:04;;;;;;;24.60;9.32;;;;;;;;;;5033509;28;20071;-62
2023/12/03 08:21:32;;;;;;;24.80;7.93;;;;;;;;;;5018631;28;20053;-61
2023/12/03 08:24:01;;;;;;;20.70;6.13;;;;;;;;;;5010789;28;20061;-61
2023/12/03 08:26:28;;;;;;;18.50;7.55;;;;;;;;;;5025016;28;20059;-61
2023/12/03 08:28:54;;;;;;;25.95;8.60;;;;;;;;;;5017261;28;20261;-61
2023/12/03 08:31:23;;;;;;;22.42;7.55;;;;;;;;;;5023797;28;20045;-62
2023/12/03 08:33:49;;;;;;;21.23;8.25;;;;;;;;;;5016875;28;20045;-61
2023/12/03 08:36:18;;;;;;;27.48;8.20;;;;;;;;;;5014606;28;20045;-63
2023/12/03 08:38:45;;;;;;;27.70;9.63;;;;;;;;;;5016933;28;20045;-62
2023/12/03 08:41:13;;;;;;;26.05;9.10;;;;;;;;;;5027651;28;20049;-62
2023/12/03 08:43:39;;;;;;;19.92;7.03;;;;;;;;;;5017352;28;20536;-62
2023/12/03 08:46:09;;;;;;;17.33;5.95;;;;;;;;;;5012655;28;20140;-62
2023/12/03 08:48:36;;;;;;;24.02;9.20;;;;;;;;;;5020355;28;20053;-61
2023/12/03 08:51:03;;;;;;;25.42;8.18;;;;;;;;;;5020259;28;20059;-61
2023/12/03 08:53:30;;;;;;;21.48;7.18;;;;;;;;;;5036219;28;20095;-62
2023/12/03 08:55:59;;;;;;;21.27;6.07;;;;;;;;;;5019878;28;20065;-61
2023/12/03 08:58:27;;;;;;;28.17;8.40;;;;;;;;;;5014313;28;20059;-63
2023/12/03 09:00:54;;;;;;;24.42;8.57;;;;;;;;;;5049401;28;20053;-63
2023/12/03 09:03:20;;;;;;;23.65;9.00;;;;;;;;;;5041065;28;20060;-62
2023/12/03 09:05:47;;;;;;;30.83;10.55;;;;;;;;;;5041034;28;20060;-62
2023/12/03 09:08:14;;;;;;;26.08;8.95;;;;;;;;;;5030545;28;20083;-63
2023/12/03 09:10:44;;;;;;;25.58;8.65;;;;;;;;;;5031241;28;20049;-62
2023/12/03 09:13:10;;;;;;;25.88;8.05;;;;;;;;;;5033305;28;20052;-62
2023/12/03 09:15:39;;;;;;;24.58;8.35;;;;;;;;;;5039388;28;20143;-63
2023/12/03 09:18:05;;;;;;;26.55;7.75;;;;;;;;;;5028480;28;20263;-65
2023/12/03 09:20:32;;;;;;;22.92;7.65;;;;;;;;;;5044933;28;20057;-63
2023/12/03 09:22:59;;;;;;;24.27;7.63;;;;;;;;;;5033705;28;20087;-63
2023/12/03 09:25:26;;;;;;;21.05;7.70;;;;;;;;;;5017427;28;20131;-64
2023/12/03 09:27:53;;;;;;;25.33;8.38;;;;;;;;;;5032451;28;20132;-63
2023/12/03 09:30:20;;;;;;;22.83;7.77;;;;;;;;;;5047778;28;20103;-63
2023/12/03 09:32:51;;;;;;;21.90;7.22;;;;;;;;;;5030551;28;20041;-62
2023/12/03 09:35:18;;;;;;;22.17;7.57;;;;;;;;;;5025441;28;20045;-63
2023/12/03 09:37:47;;;;;;;17.45;6.47;;;;;;;;;;5035910;28;20068;-63
2023/12/03 09:40:15;;;;;;;17.10;6.20;;;;;;;;;;5025492;28;20351;-64
2023/12/03 09:42:47;;;;;;;22.15;7.35;;;;;;;;;;5028823;28;20160;-63
2023/12/03 09:45:17;;;;;;;20.48;7.95;;;;;;;;;;5029179;28;20057;-64
2023/12/03 09:47:49;;;;;;;22.30;7.95;;;;;;;;;;5043286;28;20140;-63
2023/12/03 09:50:18;;;;;;;26.95;8.98;;;;;;;;;;5008760;28;20159;-63
2023/12/03 09:52:52;;;;;;;21.77;8.25;;;;;;;;;;5024714;28;20045;-63
2023/12/03 09:55:20;;;;;;;26.95;8.93;;;;;;;;;;5014960;28;20056;-63
2023/12/03 09:57:50;;;;;;;22.35;8.85;;;;;;;;;;5028320;28;20356;-64
2023/12/03 10:00:18;;;;;;;19.48;7.72;;;;;;;;;;5014033;28;20064;-65
2023/12/03 10:02:45;;;;;;;19.60;6.78;;;;;;;;;;5015844;28;20046;-64
2023/12/03 10:05:12;;;;;;;21.00;7.25;;;;;;;;;;5011820;28;20057;-61
2023/12/03 10:07:40;;;;;;;24.42;8.52;;;;;;;;;;5020460;28;20060;-61
2023/12/03 10:10:10;;;;;;;25.92;8.60;;;;;;;;;;5016911;28;20072;-64
2023/12/03 10:12:41;;;;;;;23.55;7.65;;;;;;;;;;5038026;28;20053;-64
2023/12/03 10:15:09;;;;;;;21.33;7.68;;;;;;;;;;5014612;28;20057;-61
2023/12/03 10:17:37;;;;;;;27.13;8.68;;;;;;;;;;5023561;28;20142;-62
2023/12/03 10:20:26;;;;;;;20.40;7.50;;;;;;;;;;5017748;28;20099;-62
2023/12/03 10:22:58;;;;;;;25.45;7.57;;;;;;;;;;5039312;28;20048;-63
2023/12/03 10:25:29;;;;;;;19.73;7.85;;;;;;;;;;5018643;28;20128;-61
2023/12/03 10:27:57;;;;;;;18.38;7.32;;;;;;;;;;5039765;28;20047;-62
2023/12/03 10:30:24;;;;;;;23.97;6.63;;;;;;;;;;5015375;28;20126;-62
2023/12/03 10:32:51;;;;;;;20.35;7.93;;;;;;;;;;5038892;28;20057;-62
2023/12/03 10:35:20;;;;;;;16.35;5.45;;;;;;;;;;5013766;28;20052;-62
2023/12/03 10:37:47;;;;;;;18.15;6.20;;;;;;;;;;5021914;28;20073;-62
2023/12/03 10:40:15;;;;;;;20.63;8.10;;;;;;;;;;5005409;28;20068;-61
2023/12/03 10:42:44;;;;;;;21.35;7.10;;;;;;;;;;5031477;28;20057;-62
2023/12/03 10:45:12;;;;;;;20.20;6.35;;;;;;;;;;5022121;28;20053;-62
2023/12/03 10:47:40;;;;;;;18.15;7.03;;;;;;;;;;5018837;28;20076;-62
2023/12/03 10:50:09;;;;;;;18.25;6.63;;;;;;;;;;5020347;28;20280;-61
2023/12/03 10:52:38;;;;;;;18.08;7.30;;;;;;;;;;5014719;28;20147;-61
2023/12/03 10:55:06;;;;;;;16.60;5.82;;;;;;;;;;5015339;28;20053;-61
2023/12/03 10:57:37;;;;;;;10.98;4.03;;;;;;;;;;5030778;28;20288;-62
2023/12/03 11:00:09;;;;;;;14.68;5.47;;;;;;;;;;5015038;28;20052;-62
2023/12/03 11:02:40;;;;;;;16.60;6.35;;;;;;;;;;5017712;28;20057;-62
2023/12/03 11:05:13;;;;;;;14.55;6.32;;;;;;;;;;5011127;28;20056;-62
2023/12/03 11:07:40;;;;;;;14.43;5.20;;;;;;;;;;5018168;28;20119;-63
2023/12/03 11:10:10;;;;;;;24.30;7.60;;;;;;;;;;5009619;28;20057;-63
2023/12/03 11:12:38;;;;;;;18.38;6.65;;;;;;;;;;5021360;28;20061;-62
2023/12/03 11:15:08;;;;;;;22.30;7.03;;;;;;;;;;5014413;28;20049;-62
2023/12/03 11:17:40;;;;;;;19.98;6.60;;;;;;;;;;5019301;28;20123;-62
2023/12/03 11:20:13;;;;;;;19.10;6.85;;;;;;;;;;5018783;28;20065;-62
2023/12/03 11:22:57;;;;;;;19.70;6.50;;;;;;;;;;5026659;28;20056;-62
2023/12/03 11:25:28;;;;;;;19.85;6.22;;;;;;;;;;5016260;28;20154;-63
2023/12/03 11:27:58;;;;;;;19.55;6.63;;;;;;;;;;5015482;28;20069;-62
2023/12/03 11:30:42;;;;;;;14.02;5.57;;;;;;;;;;5014095;28;20061;-63
2023/12/03 11:33:11;;;;;;;14.27;5.60;;;;;;;;;;5019622;28;20049;-62
2023/12/03 11:35:40;;;;;;;17.83;5.75;;;;;;;;;;5010213;28;20057;-62
2023/12/03 11:38:09;;;;;;;22.73;6.03;;;;;;;;;;5029100;28;20057;-63
2023/12/03 11:40:36;;;;;;;16.17;5.78;;;;;;;;;;5019820;28;20061;-62
2023/12/03 11:43:05;;;;;;;17.90;5.40;;;;;;;;;;5018989;28;20659;-62
2023/12/03 11:45:33;;;;;;;14.48;5.65;;;;;;;;;;5007981;28;20068;-62
2023/12/03 11:48:06;;;;;;;18.25;6.28;;;;;;;;;;5017125;28;20063;-62
2023/12/03 11:50:35;;;;;;;15.88;4.93;;;;;;;;;;5017414;28;20053;-61
2023/12/03 11:53:03;;;;;;;16.67;5.78;;;;;;;;;;5019039;28;20160;-62
2023/12/03 11:55:34;;;;;;;20.53;6.63;;;;;;;;;;5014317;28;20368;-62
2023/12/03 11:58:04;;;;;;;19.25;6.68;;;;;;;;;;5011818;28;20323;-61
2023/12/03 12:00:31;;;;;;;18.67;6.18;;;;;;;;;;5007143;28;20058;-62
2023/12/03 12:02:58;;;;;;;16.33;6.00;;;;;;;;;;5031313;28;20119;-61
2023/12/03 12:05:24;;;;;;;18.17;5.75;;;;;;;;;;5019120;28;20057;-61
2023/12/03 12:08:01;;;;;;;18.75;5.80;;;;;;;;;;5027069;28;20073;-62
2023/12/03 12:10:29;;;;;;;10.90;4.60;;;;;;;;;;5014942;28;20053;-62
2023/12/03 12:12:57;;;;;;;23.83;7.20;;;;;;;;;;5025435;28;20216;-62
2023/12/03 12:15:25;;;;;;;11.18;4.10;;;;;;;;;;5014883;28;20146;-61
2023/12/03 12:17:52;;;;;;;;;;;;;;;;;;5028333;28;20045;-62
2023/12/03 12:20:25;;;;;;;16.90;4.38;;;;;;;;;;5014463;28;19920;-62
2023/12/03 12:22:52;;;;;;;14.95;5.38;;;;;;;;;;5036061;28;20054;-61
2023/12/03 12:25:19;;;;;;;12.40;4.90;;;;;;;;;;5020882;28;20060;-62
2023/12/03 12:27:49;;;;;;;16.67;5.13;;;;;;;;;;5031342;28;20104;-62
2023/12/03 12:30:18;;;;;;;17.50;5.95;;;;;;;;;;5026333;28;20053;-61
2023/12/03 12:32:51;;;;;;;17.25;5.70;;;;;;;;;;5021530;28;20063;-62
2023/12/03 12:35:18;;;;;;;20.90;7.32;;;;;;;;;;5016413;28;20138;-61
2023/12/03 12:37:45;;;;;;;20.58;5.90;;;;;;;;;;5019799;28;20060;-62
2023/12/03 12:40:13;;;;;;;17.88;5.13;;;;;;;;;;5016260;28;20044;-61
2023/12/03 12:42:42;;;;;;;16.38;5.38;;;;;;;;;;5034064;28;20050;-63
2023/12/03 12:45:27;;;;;;;18.90;5.47;;;;;;;;;;5033292;28;20160;-61
2023/12/03 12:47:55;;;;;;;26.80;6.50;;;;;;;;;;5026189;28;20141;-61
2023/12/03 12:50:33;;;;;;;17.13;5.88;;;;;;;;;;5025338;28;21594;-62
2023/12/03 12:53:00;;;;;;;22.17;7.57;;;;;;;;;;5025902;28;20057;-61
2023/12/03 12:55:27;;;;;;;17.17;5.55;;;;;;;;;;5015836;28;20095;-62
2023/12/03 12:57:54;;;;;;;19.45;6.65;;;;;;;;;;5028300;28;20065;-60
2023/12/03 13:00:21;;;;;;;23.38;6.90;;;;;;;;;;5026405;28;20057;-61
2023/12/03 13:02:48;;;;;;;19.30;6.40;;;;;;;;;;5021654;28;20227;-64
2023/12/03 13:05:16;;;;;;;22.17;7.45;;;;;;;;;;5013536;28;20049;-61
2023/12/03 13:07:42;;;;;;;17.40;5.95;;;;;;;;;;5018632;28;20057;-64
2023/12/03 13:10:10;;;;;;;18.88;6.55;;;;;;;;;;5015336;28;20046;-62
2023/12/03 13:12:36;;;;;;;19.33;5.50;;;;;;;;;;5019608;28;20049;-63
2023/12/03 13:15:04;;;;;;;16.83;6.15;;;;;;;;;;5012783;28;20053;-61
2023/12/03 13:17:31;;;;;;;17.58;6.88;;;;;;;;;;5017641;28;20067;-62
2023/12/03 13:19:58;;;;;;;17.05;5.85;;;;;;;;;;5018223;28;20077;-62
2023/12/03 13:22:26;;;;;;;14.65;5.22;;;;;;;;;;5016807;28;20049;-62
2023/12/03 13:24:53;;;;;;;20.83;6.13;;;;;;;;;;5049593;28;20107;-63
2023/12/03 13:27:20;;;;;;;10.85;4.95;;;;;;;;;;5017432;28;20053;-62
2023/12/03 13:29:47;;;;;;;17.52;6.22;;;;;;;;;;5018118;28;20115;-64
2023/12/03 13:32:14;;;;;;;15.68;5.28;;;;;;;;;;5016713;28;20207;-62
2023/12/03 13:34:41;;;;;;;16.52;4.95;;;;;;;;;;5012622;28;20076;-62
2023/12/03 13:37:07;;;;;;;18.52;6.35;;;;;;;;;;5032445;28;20049;-62
2023/12/03 13:39:35;;;;;;;24.00;7.70;;;;;;;;;;5017877;28;20181;-62
2023/12/03 13:42:02;;;;;;;20.35;6.82;;;;;;;;;;5012025;28;20160;-63
2023/12/03 13:44:29;;;;;;;18.35;6.30;;;;;;;;;;5029952;28;20053;-61
2023/12/03 13:46:59;;;;;;;18.90;6.95;;;;;;;;;;5036236;28;20127;-63
2023/12/03 13:49:25;;;;;;;17.70;6.18;;;;;;;;;;5016984;28;20470;-62
2023/12/03 13:51:54;;;;;;;13.93;4.82;;;;;;;;;;5014661;28;20106;-61
2023/12/03 13:54:21;;;;;;;17.13;6.65;;;;;;;;;;5019661;28;20674;-61
2023/12/03 13:56:49;;;;;;;14.48;5.78;;;;;;;;;;5018681;28;20055;-61
2023/12/03 13:59:15;;;;;;;17.25;6.03;;;;;;;;;;5012856;28;20116;-61
2023/12/03 14:01:43;;;;;;;13.00;5.43;;;;;;;;;;5020297;28;20049;-62
2023/12/03 14:04:09;;;;;;;18.00;6.00;;;;;;;;;;5013824;28;20091;-64
2023/12/03 14:06:36;;;;;;;14.82;4.40;;;;;;;;;;5018585;28;20084;-63
2023/12/03 14:09:03;;;;;;;13.98;5.20;;;;;;;;;;5016276;28;20072;-63
2023/12/03 14:11:30;;;;;;;14.93;5.80;;;;;;;;;;5019183;28;20056;-63
2023/12/03 14:13:59;;;;;;;17.08;5.45;;;;;;;;;;5032962;28;20034;-62
2023/12/03 14:16:26;;;;;;;;;;;;;;;;;;5016127;28;20073;-60
2023/12/03 14:18:53;;;;;;;11.60;4.20;;;;;;;;;;5022841;28;19953;-61
2023/12/03 14:21:20;;;;;;;17.73;5.90;;;;;;;;;;5037151;28;20113;-61
2023/12/03 14:23:47;;;;;;;16.98;4.97;;;;;;;;;;5016424;28;20067;-61
2023/12/03 14:26:14;;;;;;;14.55;5.45;;;;;;;;;;5014654;28;20048;-61
2023/12/03 14:28:42;;;;;;;14.57;5.93;;;;;;;;;;5026874;28;20137;-63
2023/12/03 14:31:10;;;;;;;15.02;5.78;;;;;;;;;;5018162;28;20084;-62
2023/12/03 14:33:37;;;;;;;14.25;5.07;;;;;;;;;;5023840;28;20091;-62
2023/12/03 14:36:05;;;;;;;17.80;5.22;;;;;;;;;;5004272;28;20053;-63